sensor_id;sensor_type;location;lat;lon;timestamp;P1;P2;P0
61592;PMS5003;47485;51.378;-1.342;2023-05-01T00:00:52;24;24;
61592;PMS5003;47485;51.378;-1.342;2023-05-01T00:03:19;33;31;
61592;PMS5003;47485;51.378;-1.342;2023-05-01T00:05:46;30;25;
61592;PMS5003;47485;51.378;-1.342;2023-05-01T00:08:13;28;26;
61592;PMS5003;47485;51.378;-1.342;2023-05-01T00:10:40;30;26;
61592;PMS5003;47485;51.378;-1.342;2023-05-01T00:13:09;37;28;
61592;PMS5003;47485;51.378;-1.342;2023-05-01T00:15:35;37;31;
61592;PMS5003;47485;51.378;-1.342;2023-05-01T00:18:02;26;23;
61592;PMS5003;47485;51.378;-1.342;2023-05-01T00:20:29;24;22;
61592;PMS5003;47485;51.378;-1.342;2023-05-01T00:22:56;36;32;
61592;PMS5003;47485;51.378;-1.342;2023-05-01T00:25:23;31;28;
61592;PMS5003;47485;51.378;-1.342;2023-05-01T00:27:49;30;30;
61592;PMS5003;47485;51.378;-1.342;2023-05-01T00:30:16;33;32;
61592;PMS5003;47485;51.378;-1.342;2023-05-01T00:32:43;28;27;
61592;PMS5003;47485;51.378;-1.342;2023-05-01T00:35:09;34;32;
61592;PMS5003;47485;51.378;-1.342;2023-05-01T00:37:36;30;27;
61592;PMS5003;47485;51.378;-1.342;2023-05-01T00:40:02;27;25;
61592;PMS5003;47485;51.378;-1.342;2023-05-01T00:42:33;26;23;
61592;PMS5003;47485;51.378;-1.342;2023-05-01T00:45:00;26;23;
61592;PMS5003;47485;51.378;-1.342;2023-05-01T00:47:27;24;23;
61592;PMS5003;47485;51.378;-1.342;2023-05-01T00:49:53;25;22;
61592;PMS5003;47485;51.378;-1.342;2023-05-01T00:52:22;25;25;
61592;PMS5003;47485;51.378;-1.342;2023-05-01T00:54:49;22;19;
61592;PMS5003;47485;51.378;-1.342;2023-05-01T00:57:16;22;21;
61592;PMS5003;47485;51.378;-1.342;2023-05-01T00:59:43;26;24;
61592;PMS5003;47485;51.378;-1.342;2023-05-01T01:02:10;26;23;
61592;PMS5003;47485;51.378;-1.342;2023-05-01T01:04:37;20;19;
61592;PMS5003;47485;51.378;-1.342;2023-05-01T01:07:06;24;19;
61592;PMS5003;47485;51.378;-1.342;2023-05-01T01:09:44;17;14;
61592;PMS5003;47485;51.378;-1.342;2023-05-01T01:12:25;21;16;
61592;PMS5003;47485;51.378;-1.342;2023-05-01T01:14:58;15;13;
61592;PMS5003;47485;51.378;-1.342;2023-05-01T01:17:34;16;16;
61592;PMS5003;47485;51.378;-1.342;2023-05-01T01:20:14;16;14;
61592;PMS5003;47485;51.378;-1.342;2023-05-01T01:22:50;18;15;
61592;PMS5003;47485;51.378;-1.342;2023-05-01T01:25:28;15;12;
61592;PMS5003;47485;51.378;-1.342;2023-05-01T01:28:16;13;12;
61592;PMS5003;47485;51.378;-1.342;2023-05-01T01:31:07;15;13;
61592;PMS5003;47485;51.378;-1.342;2023-05-01T01:34:03;14;14;
61592;PMS5003;47485;51.378;-1.342;2023-05-01T01:36:39;14;13;
61592;PMS5003;47485;51.378;-1.342;2023-05-01T01:39:13;10;10;
61592;PMS5003;47485;51.378;-1.342;2023-05-01T01:42:00;16;14;
61592;PMS5003;47485;51.378;-1.342;2023-05-01T01:44:36;10;10;
61592;PMS5003;47485;51.378;-1.342;2023-05-01T01:47:06;13;11;
61592;PMS5003;47485;51.378;-1.342;2023-05-01T01:49:37;9;9;
61592;PMS5003;47485;51.378;-1.342;2023-05-01T01:52:08;10;9;
61592;PMS5003;47485;51.378;-1.342;2023-05-01T01:54:39;11;11;
61592;PMS5003;47485;51.378;-1.342;2023-05-01T01:57:10;9;7;
61592;PMS5003;47485;51.378;-1.342;2023-05-01T01:59:38;10;8;
61592;PMS5003;47485;51.378;-1.342;2023-05-01T02:02:07;9;8;
61592;PMS5003;47485;51.378;-1.342;2023-05-01T02:04:36;13;12;
61592;PMS5003;47485;51.378;-1.342;2023-05-01T02:07:05;9;9;
61592;PMS5003;47485;51.378;-1.342;2023-05-01T02:09:33;10;7;
61592;PMS5003;47485;51.378;-1.342;2023-05-01T02:12:02;10;9;
61592;PMS5003;47485;51.378;-1.342;2023-05-01T02:14:32;9;9;
61592;PMS5003;47485;51.378;-1.342;2023-05-01T02:17:00;8;4;
61592;PMS5003;47485;51.378;-1.342;2023-05-01T02:19:27;16;13;
61592;PMS5003;47485;51.378;-1.342;2023-05-01T02:21:57;11;8;
61592;PMS5003;47485;51.378;-1.342;2023-05-01T02:24:24;8;6;
61592;PMS5003;47485;51.378;-1.342;2023-05-01T02:26:53;5;5;
61592;PMS5003;47485;51.378;-1.342;2023-05-01T02:29:23;6;5;
61592;PMS5003;47485;51.378;-1.342;2023-05-01T02:31:50;4;4;
61592;PMS5003;47485;51.378;-1.342;2023-05-01T02:34:17;8;7;
61592;PMS5003;47485;51.378;-1.342;2023-05-01T02:36:43;10;8;
61592;PMS5003;47485;51.378;-1.342;2023-05-01T02:39:10;8;6;
61592;PMS5003;47485;51.378;-1.342;2023-05-01T02:41:37;10;6;
61592;PMS5003;47485;51.378;-1.342;2023-05-01T02:44:06;6;5;
61592;PMS5003;47485;51.378;-1.342;2023-05-01T02:46:37;4;4;
61592;PMS5003;47485;51.378;-1.342;2023-05-01T02:49:07;11;6;
61592;PMS5003;47485;51.378;-1.342;2023-05-01T02:51:35;6;4;
61592;PMS5003;47485;51.378;-1.342;2023-05-01T02:54:03;8;7;
61592;PMS5003;47485;51.378;-1.342;2023-05-01T02:56:30;6;6;
61592;PMS5003;47485;51.378;-1.342;2023-05-01T02:58:57;9;6;
61592;PMS5003;47485;51.378;-1.342;2023-05-01T03:01:24;5;3;
61592;PMS5003;47485;51.378;-1.342;2023-05-01T03:03:51;4;2;
61592;PMS5003;47485;51.378;-1.342;2023-05-01T03:06:18;7;5;
61592;PMS5003;47485;51.378;-1.342;2023-05-01T03:08:44;6;5;
61592;PMS5003;47485;51.378;-1.342;2023-05-01T03:11:11;5;4;
61592;PMS5003;47485;51.378;-1.342;2023-05-01T03:13:37;8;6;
61592;PMS5003;47485;51.378;-1.342;2023-05-01T03:16:04;5;4;
61592;PMS5003;47485;51.378;-1.342;2023-05-01T03:18:31;7;6;
61592;PMS5003;47485;51.378;-1.342;2023-05-01T03:20:58;6;5;
61592;PMS5003;47485;51.378;-1.342;2023-05-01T03:23:25;7;4;
61592;PMS5003;47485;51.378;-1.342;2023-05-01T03:25:51;5;4;
61592;PMS5003;47485;51.378;-1.342;2023-05-01T03:28:18;5;4;
61592;PMS5003;47485;51.378;-1.342;2023-05-01T03:30:45;5;4;
61592;PMS5003;47485;51.378;-1.342;2023-05-01T03:33:12;7;6;
61592;PMS5003;47485;51.378;-1.342;2023-05-01T03:35:38;8;5;
61592;PMS5003;47485;51.378;-1.342;2023-05-01T03:38:05;6;4;
61592;PMS5003;47485;51.378;-1.342;2023-05-01T03:40:32;4;4;
61592;PMS5003;47485;51.378;-1.342;2023-05-01T03:42:58;6;3;
61592;PMS5003;47485;51.378;-1.342;2023-05-01T03:45:25;4;4;
61592;PMS5003;47485;51.378;-1.342;2023-05-01T03:47:53;6;4;
61592;PMS5003;47485;51.378;-1.342;2023-05-01T03:50:20;6;4;
61592;PMS5003;47485;51.378;-1.342;2023-05-01T03:52:46;8;5;
61592;PMS5003;47485;51.378;-1.342;2023-05-01T03:55:13;12;7;
61592;PMS5003;47485;51.378;-1.342;2023-05-01T03:57:40;6;5;
61592;PMS5003;47485;51.378;-1.342;2023-05-01T04:00:08;6;5;
61592;PMS5003;47485;51.378;-1.342;2023-05-01T04:02:35;9;7;
61592;PMS5003;47485;51.378;-1.342;2023-05-01T04:05:02;5;5;
61592;PMS5003;47485;51.378;-1.342;2023-05-01T04:07:30;5;5;
61592;PMS5003;47485;51.378;-1.342;2023-05-01T04:09:57;10;6;
61592;PMS5003;47485;51.378;-1.342;2023-05-01T04:12:23;7;5;
61592;PMS5003;47485;51.378;-1.342;2023-05-01T04:14:50;3;3;
61592;PMS5003;47485;51.378;-1.342;2023-05-01T04:17:17;5;5;
61592;PMS5003;47485;51.378;-1.342;2023-05-01T04:19:44;7;6;
61592;PMS5003;47485;51.378;-1.342;2023-05-01T04:22:11;6;4;
61592;PMS5003;47485;51.378;-1.342;2023-05-01T04:24:38;9;8;
61592;PMS5003;47485;51.378;-1.342;2023-05-01T04:27:04;7;7;
61592;PMS5003;47485;51.378;-1.342;2023-05-01T04:29:31;10;7;
61592;PMS5003;47485;51.378;-1.342;2023-05-01T04:31:58;6;6;
61592;PMS5003;47485;51.378;-1.342;2023-05-01T04:34:25;7;6;
61592;PMS5003;47485;51.378;-1.342;2023-05-01T04:36:51;3;3;
61592;PMS5003;47485;51.378;-1.342;2023-05-01T04:39:18;6;6;
61592;PMS5003;47485;51.378;-1.342;2023-05-01T04:41:45;7;6;
61592;PMS5003;47485;51.378;-1.342;2023-05-01T04:44:11;8;7;
61592;PMS5003;47485;51.378;-1.342;2023-05-01T04:46:38;12;8;
61592;PMS5003;47485;51.378;-1.342;2023-05-01T04:49:05;12;6;
61592;PMS5003;47485;51.378;-1.342;2023-05-01T04:51:32;6;5;
61592;PMS5003;47485;51.378;-1.342;2023-05-01T04:53:58;9;7;
61592;PMS5003;47485;51.378;-1.342;2023-05-01T04:56:25;9;7;
61592;PMS5003;47485;51.378;-1.342;2023-05-01T04:58:52;7;6;
61592;PMS5003;47485;51.378;-1.342;2023-05-01T05:01:19;10;6;
61592;PMS5003;47485;51.378;-1.342;2023-05-01T05:03:46;9;9;
61592;PMS5003;47485;51.378;-1.342;2023-05-01T05:06:12;7;5;
61592;PMS5003;47485;51.378;-1.342;2023-05-01T05:08:39;8;8;
61592;PMS5003;47485;51.378;-1.342;2023-05-01T05:11:06;12;7;
61592;PMS5003;47485;51.378;-1.342;2023-05-01T05:13:33;8;7;
61592;PMS5003;47485;51.378;-1.342;2023-05-01T05:16:00;8;7;
61592;PMS5003;47485;51.378;-1.342;2023-05-01T05:18:27;7;5;
61592;PMS5003;47485;51.378;-1.342;2023-05-01T05:20:54;9;7;
61592;PMS5003;47485;51.378;-1.342;2023-05-01T05:23:21;15;13;
61592;PMS5003;47485;51.378;-1.342;2023-05-01T05:25:48;8;6;
61592;PMS5003;47485;51.378;-1.342;2023-05-01T05:28:15;8;5;
61592;PMS5003;47485;51.378;-1.342;2023-05-01T05:30:41;8;7;
61592;PMS5003;47485;51.378;-1.342;2023-05-01T05:33:08;6;6;
61592;PMS5003;47485;51.378;-1.342;2023-05-01T05:35:36;7;4;
61592;PMS5003;47485;51.378;-1.342;2023-05-01T05:38:02;8;7;
61592;PMS5003;47485;51.378;-1.342;2023-05-01T05:40:29;11;7;
61592;PMS5003;47485;51.378;-1.342;2023-05-01T05:42:56;9;5;
61592;PMS5003;47485;51.378;-1.342;2023-05-01T05:45:23;11;8;
61592;PMS5003;47485;51.378;-1.342;2023-05-01T05:47:49;6;6;
61592;PMS5003;47485;51.378;-1.342;2023-05-01T05:50:16;10;8;
61592;PMS5003;47485;51.378;-1.342;2023-05-01T05:52:42;5;5;
61592;PMS5003;47485;51.378;-1.342;2023-05-01T05:55:09;5;4;
61592;PMS5003;47485;51.378;-1.342;2023-05-01T05:57:36;9;6;
61592;PMS5003;47485;51.378;-1.342;2023-05-01T06:00:03;5;4;
61592;PMS5003;47485;51.378;-1.342;2023-05-01T06:02:30;6;5;
61592;PMS5003;47485;51.378;-1.342;2023-05-01T06:04:57;11;7;
61592;PMS5003;47485;51.378;-1.342;2023-05-01T06:07:24;7;7;
61592;PMS5003;47485;51.378;-1.342;2023-05-01T06:09:51;9;7;
61592;PMS5003;47485;51.378;-1.342;2023-05-01T06:12:18;5;5;
61592;PMS5003;47485;51.378;-1.342;2023-05-01T06:14:45;11;7;
61592;PMS5003;47485;51.378;-1.342;2023-05-01T06:17:12;7;7;
61592;PMS5003;47485;51.378;-1.342;2023-05-01T06:19:38;12;7;
61592;PMS5003;47485;51.378;-1.342;2023-05-01T06:22:05;8;6;
61592;PMS5003;47485;51.378;-1.342;2023-05-01T06:24:32;12;7;
61592;PMS5003;47485;51.378;-1.342;2023-05-01T06:26:59;9;6;
61592;PMS5003;47485;51.378;-1.342;2023-05-01T06:29:26;6;6;
61592;PMS5003;47485;51.378;-1.342;2023-05-01T06:31:53;5;5;
61592;PMS5003;47485;51.378;-1.342;2023-05-01T06:34:20;7;6;
61592;PMS5003;47485;51.378;-1.342;2023-05-01T06:36:46;9;8;
61592;PMS5003;47485;51.378;-1.342;2023-05-01T06:39:13;7;7;
61592;PMS5003;47485;51.378;-1.342;2023-05-01T06:41:40;7;6;
61592;PMS5003;47485;51.378;-1.342;2023-05-01T06:44:07;6;6;
61592;PMS5003;47485;51.378;-1.342;2023-05-01T06:46:34;8;6;
61592;PMS5003;47485;51.378;-1.342;2023-05-01T06:49:01;11;9;
61592;PMS5003;47485;51.378;-1.342;2023-05-01T06:51:27;8;7;
61592;PMS5003;47485;51.378;-1.342;2023-05-01T06:53:54;12;12;
61592;PMS5003;47485;51.378;-1.342;2023-05-01T06:56:21;11;8;
61592;PMS5003;47485;51.378;-1.342;2023-05-01T06:58:48;8;7;
61592;PMS5003;47485;51.378;-1.342;2023-05-01T07:01:15;8;8;
61592;PMS5003;47485;51.378;-1.342;2023-05-01T07:03:42;15;13;
61592;PMS5003;47485;51.378;-1.342;2023-05-01T07:06:09;9;8;
61592;PMS5003;47485;51.378;-1.342;2023-05-01T07:08:36;13;11;
61592;PMS5003;47485;51.378;-1.342;2023-05-01T07:11:03;14;9;
61592;PMS5003;47485;51.378;-1.342;2023-05-01T07:13:30;8;8;
61592;PMS5003;47485;51.378;-1.342;2023-05-01T07:15:56;11;8;
61592;PMS5003;47485;51.378;-1.342;2023-05-01T07:18:23;9;9;
61592;PMS5003;47485;51.378;-1.342;2023-05-01T07:20:50;13;11;
61592;PMS5003;47485;51.378;-1.342;2023-05-01T07:23:17;10;8;
61592;PMS5003;47485;51.378;-1.342;2023-05-01T07:25:44;12;10;
61592;PMS5003;47485;51.378;-1.342;2023-05-01T07:28:11;18;15;
61592;PMS5003;47485;51.378;-1.342;2023-05-01T07:30:37;11;10;
61592;PMS5003;47485;51.378;-1.342;2023-05-01T07:33:04;11;9;
61592;PMS5003;47485;51.378;-1.342;2023-05-01T07:35:30;12;10;
61592;PMS5003;47485;51.378;-1.342;2023-05-01T07:37:57;10;10;
61592;PMS5003;47485;51.378;-1.342;2023-05-01T07:40:23;13;10;
61592;PMS5003;47485;51.378;-1.342;2023-05-01T07:42:50;13;9;
61592;PMS5003;47485;51.378;-1.342;2023-05-01T07:45:17;13;10;
61592;PMS5003;47485;51.378;-1.342;2023-05-01T07:47:44;9;9;
61592;PMS5003;47485;51.378;-1.342;2023-05-01T07:50:11;13;11;
61592;PMS5003;47485;51.378;-1.342;2023-05-01T07:52:38;13;9;
61592;PMS5003;47485;51.378;-1.342;2023-05-01T07:55:06;8;7;
61592;PMS5003;47485;51.378;-1.342;2023-05-01T07:57:34;12;11;
61592;PMS5003;47485;51.378;-1.342;2023-05-01T08:00:01;13;11;
61592;PMS5003;47485;51.378;-1.342;2023-05-01T08:02:28;10;9;
61592;PMS5003;47485;51.378;-1.342;2023-05-01T08:04:54;9;8;
61592;PMS5003;47485;51.378;-1.342;2023-05-01T08:07:21;10;8;
61592;PMS5003;47485;51.378;-1.342;2023-05-01T08:09:48;12;9;
61592;PMS5003;47485;51.378;-1.342;2023-05-01T08:12:15;13;11;
61592;PMS5003;47485;51.378;-1.342;2023-05-01T08:14:41;11;11;
61592;PMS5003;47485;51.378;-1.342;2023-05-01T08:17:09;9;9;
61592;PMS5003;47485;51.378;-1.342;2023-05-01T08:19:36;16;11;
61592;PMS5003;47485;51.378;-1.342;2023-05-01T08:22:03;11;10;
61592;PMS5003;47485;51.378;-1.342;2023-05-01T08:24:30;9;8;
61592;PMS5003;47485;51.378;-1.342;2023-05-01T08:26:57;15;12;
61592;PMS5003;47485;51.378;-1.342;2023-05-01T08:29:24;12;10;
61592;PMS5003;47485;51.378;-1.342;2023-05-01T08:31:51;9;9;
61592;PMS5003;47485;51.378;-1.342;2023-05-01T08:34:18;9;8;
61592;PMS5003;47485;51.378;-1.342;2023-05-01T08:36:45;12;9;
61592;PMS5003;47485;51.378;-1.342;2023-05-01T08:39:13;8;8;
61592;PMS5003;47485;51.378;-1.342;2023-05-01T08:41:42;8;8;
61592;PMS5003;47485;51.378;-1.342;2023-05-01T08:44:12;10;10;
61592;PMS5003;47485;51.378;-1.342;2023-05-01T08:46:43;8;7;
61592;PMS5003;47485;51.378;-1.342;2023-05-01T08:49:14;9;9;
61592;PMS5003;47485;51.378;-1.342;2023-05-01T08:51:43;10;9;
61592;PMS5003;47485;51.378;-1.342;2023-05-01T08:54:12;10;10;
61592;PMS5003;47485;51.378;-1.342;2023-05-01T08:56:40;9;7;
61592;PMS5003;47485;51.378;-1.342;2023-05-01T08:59:09;8;8;
61592;PMS5003;47485;51.378;-1.342;2023-05-01T09:01:38;7;7;
61592;PMS5003;47485;51.378;-1.342;2023-05-01T09:04:07;9;8;
61592;PMS5003;47485;51.378;-1.342;2023-05-01T09:06:34;8;7;
61592;PMS5003;47485;51.378;-1.342;2023-05-01T09:09:01;7;7;
61592;PMS5003;47485;51.378;-1.342;2023-05-01T09:11:28;6;6;
61592;PMS5003;47485;51.378;-1.342;2023-05-01T09:13:56;9;8;
61592;PMS5003;47485;51.378;-1.342;2023-05-01T09:16:22;8;8;
61592;PMS5003;47485;51.378;-1.342;2023-05-01T09:18:49;11;8;
61592;PMS5003;47485;51.378;-1.342;2023-05-01T09:21:17;7;7;
61592;PMS5003;47485;51.378;-1.342;2023-05-01T09:23:44;8;8;
61592;PMS5003;47485;51.378;-1.342;2023-05-01T09:26:10;9;7;
61592;PMS5003;47485;51.378;-1.342;2023-05-01T09:28:38;8;7;
61592;PMS5003;47485;51.378;-1.342;2023-05-01T09:31:17;9;7;
61592;PMS5003;47485;51.378;-1.342;2023-05-01T09:33:50;8;8;
61592;PMS5003;47485;51.378;-1.342;2023-05-01T09:36:18;9;7;
61592;PMS5003;47485;51.378;-1.342;2023-05-01T09:38:44;7;7;
61592;PMS5003;47485;51.378;-1.342;2023-05-01T09:41:11;8;7;
61592;PMS5003;47485;51.378;-1.342;2023-05-01T09:43:38;6;6;
61592;PMS5003;47485;51.378;-1.342;2023-05-01T09:46:05;11;9;
61592;PMS5003;47485;51.378;-1.342;2023-05-01T09:48:33;8;8;
61592;PMS5003;47485;51.378;-1.342;2023-05-01T09:51:01;7;6;
61592;PMS5003;47485;51.378;-1.342;2023-05-01T09:53:46;6;5;
61592;PMS5003;47485;51.378;-1.342;2023-05-01T09:56:12;8;7;
61592;PMS5003;47485;51.378;-1.342;2023-05-01T09:58:39;7;6;
61592;PMS5003;47485;51.378;-1.342;2023-05-01T10:01:06;8;8;
61592;PMS5003;47485;51.378;-1.342;2023-05-01T10:03:33;10;9;
61592;PMS5003;47485;51.378;-1.342;2023-05-01T10:06:01;9;8;
61592;PMS5003;47485;51.378;-1.342;2023-05-01T10:08:33;6;5;
61592;PMS5003;47485;51.378;-1.342;2023-05-01T10:11:10;3;3;
61592;PMS5003;47485;51.378;-1.342;2023-05-01T10:13:37;5;5;
61592;PMS5003;47485;51.378;-1.342;2023-05-01T10:16:03;5;5;
61592;PMS5003;47485;51.378;-1.342;2023-05-01T10:18:31;4;4;
61592;PMS5003;47485;51.378;-1.342;2023-05-01T10:20:59;5;4;
61592;PMS5003;47485;51.378;-1.342;2023-05-01T10:23:26;6;5;
61592;PMS5003;47485;51.378;-1.342;2023-05-01T10:25:53;9;6;
61592;PMS5003;47485;51.378;-1.342;2023-05-01T10:28:22;4;4;
61592;PMS5003;47485;51.378;-1.342;2023-05-01T10:30:49;3;3;
61592;PMS5003;47485;51.378;-1.342;2023-05-01T10:33:16;4;4;
61592;PMS5003;47485;51.378;-1.342;2023-05-01T10:35:44;4;3;
61592;PMS5003;47485;51.378;-1.342;2023-05-01T10:38:18;6;5;
61592;PMS5003;47485;51.378;-1.342;2023-05-01T10:40:48;4;1;
61592;PMS5003;47485;51.378;-1.342;2023-05-01T10:43:18;3;3;
61592;PMS5003;47485;51.378;-1.342;2023-05-01T10:45:47;3;3;
61592;PMS5003;47485;51.378;-1.342;2023-05-01T10:49:19;3;2;
61592;PMS5003;47485;51.378;-1.342;2023-05-01T10:52:02;3;3;
61592;PMS5003;47485;51.378;-1.342;2023-05-01T10:54:29;4;4;
61592;PMS5003;47485;51.378;-1.342;2023-05-01T10:56:57;2;1;
61592;PMS5003;47485;51.378;-1.342;2023-05-01T10:59:26;3;3;
61592;PMS5003;47485;51.378;-1.342;2023-05-01T11:01:53;3;3;
61592;PMS5003;47485;51.378;-1.342;2023-05-01T11:04:53;2;2;
61592;PMS5003;47485;51.378;-1.342;2023-05-01T11:07:21;3;3;
61592;PMS5003;47485;51.378;-1.342;2023-05-01T11:09:49;3;3;
61592;PMS5003;47485;51.378;-1.342;2023-05-01T11:12:46;7;3;
61592;PMS5003;47485;51.378;-1.342;2023-05-01T11:15:24;4;3;
61592;PMS5003;47485;51.378;-1.342;2023-05-01T11:17:52;3;3;
61592;PMS5003;47485;51.378;-1.342;2023-05-01T11:20:51;4;3;
61592;PMS5003;47485;51.378;-1.342;2023-05-01T11:23:19;5;2;
61592;PMS5003;47485;51.378;-1.342;2023-05-01T11:25:47;3;3;
61592;PMS5003;47485;51.378;-1.342;2023-05-01T11:28:18;3;2;
61592;PMS5003;47485;51.378;-1.342;2023-05-01T11:30:45;4;4;
61592;PMS5003;47485;51.378;-1.342;2023-05-01T11:33:13;3;3;
61592;PMS5003;47485;51.378;-1.342;2023-05-01T11:35:55;3;3;
61592;PMS5003;47485;51.378;-1.342;2023-05-01T11:38:23;2;2;
61592;PMS5003;47485;51.378;-1.342;2023-05-01T11:40:53;5;4;
61592;PMS5003;47485;51.378;-1.342;2023-05-01T11:43:22;2;2;
61592;PMS5003;47485;51.378;-1.342;2023-05-01T11:45:50;3;3;
61592;PMS5003;47485;51.378;-1.342;2023-05-01T11:48:19;4;4;
61592;PMS5003;47485;51.378;-1.342;2023-05-01T11:50:46;9;6;
61592;PMS5003;47485;51.378;-1.342;2023-05-01T11:53:13;3;3;
61592;PMS5003;47485;51.378;-1.342;2023-05-01T11:55:41;5;4;
61592;PMS5003;47485;51.378;-1.342;2023-05-01T11:58:09;2;2;
61592;PMS5003;47485;51.378;-1.342;2023-05-01T12:00:37;4;4;
61592;PMS5003;47485;51.378;-1.342;2023-05-01T12:03:05;3;3;
61592;PMS5003;47485;51.378;-1.342;2023-05-01T12:05:34;3;3;
61592;PMS5003;47485;51.378;-1.342;2023-05-01T12:08:06;4;3;
61592;PMS5003;47485;51.378;-1.342;2023-05-01T12:10:36;5;5;
61592;PMS5003;47485;51.378;-1.342;2023-05-01T12:13:04;4;3;
61592;PMS5003;47485;51.378;-1.342;2023-05-01T12:15:33;4;4;
61592;PMS5003;47485;51.378;-1.342;2023-05-01T12:18:01;5;5;
61592;PMS5003;47485;51.378;-1.342;2023-05-01T12:20:36;7;7;
61592;PMS5003;47485;51.378;-1.342;2023-05-01T12:23:04;1;1;
61592;PMS5003;47485;51.378;-1.342;2023-05-01T12:25:33;1;1;
61592;PMS5003;47485;51.378;-1.342;2023-05-01T12:28:01;3;2;
61592;PMS5003;47485;51.378;-1.342;2023-05-01T12:30:33;0;0;
61592;PMS5003;47485;51.378;-1.342;2023-05-01T12:32:59;1;1;
61592;PMS5003;47485;51.378;-1.342;2023-05-01T12:35:34;1;1;
61592;PMS5003;47485;51.378;-1.342;2023-05-01T12:38:04;1;1;
61592;PMS5003;47485;51.378;-1.342;2023-05-01T12:40:35;2;1;
61592;PMS5003;47485;51.378;-1.342;2023-05-01T12:43:03;0;0;
61592;PMS5003;47485;51.378;-1.342;2023-05-01T12:45:29;2;2;
61592;PMS5003;47485;51.378;-1.342;2023-05-01T12:48:08;2;2;
61592;PMS5003;47485;51.378;-1.342;2023-05-01T12:50:37;3;1;
61592;PMS5003;47485;51.378;-1.342;2023-05-01T12:53:04;5;2;
61592;PMS5003;47485;51.378;-1.342;2023-05-01T12:55:31;1;1;
61592;PMS5003;47485;51.378;-1.342;2023-05-01T12:58:08;3;1;
61592;PMS5003;47485;51.378;-1.342;2023-05-01T13:00:40;1;1;
61592;PMS5003;47485;51.378;-1.342;2023-05-01T13:03:10;1;1;
61592;PMS5003;47485;51.378;-1.342;2023-05-01T13:05:36;4;3;
61592;PMS5003;47485;51.378;-1.342;2023-05-01T13:08:21;3;3;
61592;PMS5003;47485;51.378;-1.342;2023-05-01T13:10:50;4;3;
61592;PMS5003;47485;51.378;-1.342;2023-05-01T13:13:22;4;1;
61592;PMS5003;47485;51.378;-1.342;2023-05-01T13:15:50;2;2;
61592;PMS5003;47485;51.378;-1.342;2023-05-01T13:18:17;4;2;
61592;PMS5003;47485;51.378;-1.342;2023-05-01T13:20:43;3;1;
61592;PMS5003;47485;51.378;-1.342;2023-05-01T13:23:10;3;3;
61592;PMS5003;47485;51.378;-1.342;2023-05-01T13:25:38;3;1;
61592;PMS5003;47485;51.378;-1.342;2023-05-01T13:28:05;2;2;
61592;PMS5003;47485;51.378;-1.342;2023-05-01T13:30:33;2;2;
61592;PMS5003;47485;51.378;-1.342;2023-05-01T13:33:00;2;2;
61592;PMS5003;47485;51.378;-1.342;2023-05-01T13:35:26;2;2;
61592;PMS5003;47485;51.378;-1.342;2023-05-01T13:37:53;2;2;
61592;PMS5003;47485;51.378;-1.342;2023-05-01T13:40:20;2;2;
61592;PMS5003;47485;51.378;-1.342;2023-05-01T13:42:51;2;2;
61592;PMS5003;47485;51.378;-1.342;2023-05-01T13:45:18;2;2;
61592;PMS5003;47485;51.378;-1.342;2023-05-01T13:47:44;1;1;
61592;PMS5003;47485;51.378;-1.342;2023-05-01T13:50:12;1;1;
61592;PMS5003;47485;51.378;-1.342;2023-05-01T13:52:41;2;2;
61592;PMS5003;47485;51.378;-1.342;2023-05-01T13:55:10;1;1;
61592;PMS5003;47485;51.378;-1.342;2023-05-01T13:57:37;1;1;
61592;PMS5003;47485;51.378;-1.342;2023-05-01T14:00:05;1;1;
61592;PMS5003;47485;51.378;-1.342;2023-05-01T14:02:36;1;1;
61592;PMS5003;47485;51.378;-1.342;2023-05-01T14:05:10;3;2;
61592;PMS5003;47485;51.378;-1.342;2023-05-01T14:07:39;0;0;
61592;PMS5003;47485;51.378;-1.342;2023-05-01T14:10:11;1;1;
61592;PMS5003;47485;51.378;-1.342;2023-05-01T14:12:38;2;1;
61592;PMS5003;47485;51.378;-1.342;2023-05-01T14:15:07;2;2;
61592;PMS5003;47485;51.378;-1.342;2023-05-01T14:17:37;1;1;
61592;PMS5003;47485;51.378;-1.342;2023-05-01T14:20:04;2;1;
61592;PMS5003;47485;51.378;-1.342;2023-05-01T14:22:35;2;1;
61592;PMS5003;47485;51.378;-1.342;2023-05-01T14:25:07;0;0;
61592;PMS5003;47485;51.378;-1.342;2023-05-01T14:27:47;2;2;
61592;PMS5003;47485;51.378;-1.342;2023-05-01T14:30:15;0;0;
61592;PMS5003;47485;51.378;-1.342;2023-05-01T14:32:51;2;2;
61592;PMS5003;47485;51.378;-1.342;2023-05-01T14:35:18;3;2;
61592;PMS5003;47485;51.378;-1.342;2023-05-01T14:37:46;3;2;
61592;PMS5003;47485;51.378;-1.342;2023-05-01T14:40:13;1;1;
61592;PMS5003;47485;51.378;-1.342;2023-05-01T14:42:40;2;2;
61592;PMS5003;47485;51.378;-1.342;2023-05-01T14:45:09;3;3;
61592;PMS5003;47485;51.378;-1.342;2023-05-01T14:47:38;1;1;
61592;PMS5003;47485;51.378;-1.342;2023-05-01T14:50:10;2;2;
61592;PMS5003;47485;51.378;-1.342;2023-05-01T14:52:37;3;3;
61592;PMS5003;47485;51.378;-1.342;2023-05-01T14:55:04;3;2;
61592;PMS5003;47485;51.378;-1.342;2023-05-01T14:57:32;1;1;
61592;PMS5003;47485;51.378;-1.342;2023-05-01T14:59:58;3;3;
61592;PMS5003;47485;51.378;-1.342;2023-05-01T15:02:26;1;1;
61592;PMS5003;47485;51.378;-1.342;2023-05-01T15:04:53;2;2;
61592;PMS5003;47485;51.378;-1.342;2023-05-01T15:07:20;5;3;
61592;PMS5003;47485;51.378;-1.342;2023-05-01T15:09:47;2;2;
61592;PMS5003;47485;51.378;-1.342;2023-05-01T15:12:14;3;2;
61592;PMS5003;47485;51.378;-1.342;2023-05-01T15:14:41;1;1;
61592;PMS5003;47485;51.378;-1.342;2023-05-01T15:17:07;2;2;
61592;PMS5003;47485;51.378;-1.342;2023-05-01T15:19:35;2;1;
61592;PMS5003;47485;51.378;-1.342;2023-05-01T15:22:01;2;1;
61592;PMS5003;47485;51.378;-1.342;2023-05-01T15:24:28;5;3;
61592;PMS5003;47485;51.378;-1.342;2023-05-01T15:26:55;1;1;
61592;PMS5003;47485;51.378;-1.342;2023-05-01T15:29:21;1;1;
61592;PMS5003;47485;51.378;-1.342;2023-05-01T15:31:48;2;1;
61592;PMS5003;47485;51.378;-1.342;2023-05-01T15:34:15;3;3;
61592;PMS5003;47485;51.378;-1.342;2023-05-01T15:36:42;2;2;
61592;PMS5003;47485;51.378;-1.342;2023-05-01T15:39:09;1;1;
61592;PMS5003;47485;51.378;-1.342;2023-05-01T15:41:36;2;2;
61592;PMS5003;47485;51.378;-1.342;2023-05-01T15:44:03;2;2;
61592;PMS5003;47485;51.378;-1.342;2023-05-01T15:46:30;2;2;
61592;PMS5003;47485;51.378;-1.342;2023-05-01T15:48:57;0;0;
61592;PMS5003;47485;51.378;-1.342;2023-05-01T15:51:24;3;2;
61592;PMS5003;47485;51.378;-1.342;2023-05-01T15:53:51;0;0;
61592;PMS5003;47485;51.378;-1.342;2023-05-01T15:56:18;2;2;
61592;PMS5003;47485;51.378;-1.342;2023-05-01T15:58:46;0;0;
61592;PMS5003;47485;51.378;-1.342;2023-05-01T16:01:12;1;1;
61592;PMS5003;47485;51.378;-1.342;2023-05-01T16:03:42;5;1;
61592;PMS5003;47485;51.378;-1.342;2023-05-01T16:06:10;2;2;
61592;PMS5003;47485;51.378;-1.342;2023-05-01T16:08:37;1;1;
61592;PMS5003;47485;51.378;-1.342;2023-05-01T16:11:04;1;1;
61592;PMS5003;47485;51.378;-1.342;2023-05-01T16:13:35;2;2;
61592;PMS5003;47485;51.378;-1.342;2023-05-01T16:16:02;2;1;
61592;PMS5003;47485;51.378;-1.342;2023-05-01T16:18:31;1;1;
61592;PMS5003;47485;51.378;-1.342;2023-05-01T16:20:57;2;2;
61592;PMS5003;47485;51.378;-1.342;2023-05-01T16:23:24;0;0;
61592;PMS5003;47485;51.378;-1.342;2023-05-01T16:25:51;1;1;
61592;PMS5003;47485;51.378;-1.342;2023-05-01T16:28:18;2;2;
61592;PMS5003;47485;51.378;-1.342;2023-05-01T16:30:45;2;1;
61592;PMS5003;47485;51.378;-1.342;2023-05-01T16:33:14;2;2;
61592;PMS5003;47485;51.378;-1.342;2023-05-01T16:35:42;2;2;